createdAt,value
2022-08-08T00:01:12.395Z,65.94
2022-08-08T00:04:04.965Z,65.66
2022-08-08T00:06:49.684Z,66.00
2022-08-08T00:09:16.733Z,65.88
2022-08-08T00:12:12.748Z,65.88
2022-08-08T00:14:59.578Z,66.49
2022-08-08T00:18:01.688Z,66.13
2022-08-08T00:20:54.380Z,66.92
2022-08-08T00:23:51.356Z,66.52
2022-08-08T00:26:30.105Z,66.49
2022-08-08T00:29:07.867Z,66.64
2022-08-08T00:32:16.426Z,66.64
2022-08-08T00:35:06.839Z,66.19
2022-08-08T00:38:31.358Z,67.72
2022-08-08T00:41:45.225Z,68.02
2022-08-08T00:44:51.130Z,68.72
2022-08-08T00:48:04.876Z,69.36
2022-08-08T00:51:03.297Z,69.34
2022-08-08T00:54:13.677Z,70.34
2022-08-08T00:57:19.749Z,70.55
2022-08-08T01:00:08.644Z,70.35
2022-08-08T01:03:58.681Z,70.80
2022-08-08T01:06:29.867Z,70.39
2022-08-08T01:09:41.572Z,70.41
2022-08-08T01:12:46.684Z,70.57
2022-08-08T01:15:47.337Z,70.99
2022-08-08T01:18:53.017Z,70.84
2022-08-08T01:22:12.119Z,71.06
2022-08-08T01:25:08.333Z,70.88
2022-08-08T01:27:44.402Z,71.19
2022-08-08T01:30:54.351Z,70.61
2022-08-08T01:33:33.906Z,70.13
2022-08-08T01:36:36.011Z,70.41
2022-08-08T01:39:34.951Z,70.49
2022-08-08T01:42:35.870Z,70.90
2022-08-08T01:45:22.726Z,71.02
2022-08-08T01:48:30.702Z,70.97
2022-08-08T01:51:31.592Z,70.31
2022-08-08T01:55:46.330Z,70.26
2022-08-08T01:58:10.706Z,70.60
2022-08-08T02:01:15.707Z,71.28
2022-08-08T02:04:01.897Z,71.39
2022-08-08T02:06:57.172Z,71.24
2022-08-08T02:10:02.454Z,72.61
2022-08-08T02:12:49.959Z,72.63
2022-08-08T02:15:38.492Z,72.76
2022-08-08T02:18:26.651Z,72.60
2022-08-08T02:21:26.478Z,72.19
2022-08-08T02:24:19.932Z,72.00
2022-08-08T02:27:02.454Z,71.61
2022-08-08T02:30:03.456Z,71.85
2022-08-08T02:32:53.258Z,71.54
2022-08-08T02:36:04.322Z,71.40
2022-08-08T02:38:44.837Z,71.68
2022-08-08T02:42:04.284Z,71.76
2022-08-08T02:44:57.239Z,71.58
2022-08-08T02:48:07.226Z,71.03
2022-08-08T02:51:30.491Z,71.21
2022-08-08T02:54:37.809Z,71.53
2022-08-08T02:57:44.440Z,71.53
2022-08-08T03:00:33.779Z,72.27
2022-08-08T03:05:01.009Z,72.03
2022-08-08T03:06:50.446Z,72.29
2022-08-08T03:09:55.029Z,72.55
2022-08-08T03:13:01.175Z,73.51
2022-08-08T03:16:05.864Z,73.14
2022-08-08T03:18:48.860Z,73.64
2022-08-08T03:21:18.609Z,73.96
2022-08-08T03:23:57.427Z,74.05
2022-08-08T03:26:42.659Z,73.73
2022-08-08T03:29:18.695Z,74.26
2022-08-08T03:32:14.322Z,75.05
2022-08-08T03:34:41.134Z,74.77
2022-08-08T03:37:58.842Z,74.92
2022-08-08T03:40:10.792Z,75.13
2022-08-08T03:42:53.665Z,75.77
2022-08-08T03:46:07.481Z,75.59
2022-08-08T03:48:20.787Z,75.69
2022-08-08T03:51:07.015Z,75.82
2022-08-08T03:53:42.246Z,75.75
2022-08-08T03:56:31.924Z,75.66
2022-08-08T03:59:04.489Z,76.12
2022-08-08T04:02:13.012Z,76.38
2022-08-08T04:04:31.209Z,76.00
2022-08-08T04:07:00.883Z,76.17
2022-08-08T04:09:58.925Z,76.37
2022-08-08T04:12:22.699Z,76.80
2022-08-08T04:14:50.841Z,76.67
2022-08-08T04:17:45.969Z,76.10
2022-08-08T04:20:09.364Z,76.14
2022-08-08T04:22:36.758Z,75.90
2022-08-08T04:25:06.202Z,76.04
2022-08-08T04:28:02.535Z,75.80
2022-08-08T04:30:23.122Z,76.03
2022-08-08T04:32:52.954Z,76.14
2022-08-08T04:35:29.428Z,76.15
2022-08-08T04:37:59.806Z,76.08
2022-08-08T04:40:38.748Z,76.81
2022-08-08T04:43:05.559Z,77.03
2022-08-08T04:45:39.907Z,76.73
2022-08-08T04:48:07.646Z,76.75
2022-08-08T04:50:37.925Z,76.62
2022-08-08T04:53:52.070Z,77.12
2022-08-08T04:55:59.173Z,76.34
2022-08-08T04:58:30.197Z,77.62
2022-08-08T05:00:58.329Z,78.21
2022-08-08T05:04:09.919Z,79.09
2022-08-08T05:06:25.327Z,78.59
2022-08-08T05:08:53.144Z,78.65
2022-08-08T05:11:24.529Z,78.75
2022-08-08T05:14:01.327Z,78.80
2022-08-08T05:16:54.930Z,78.99
2022-08-08T05:20:09.656Z,79.11
2022-08-08T05:22:10.798Z,79.17
2022-08-08T05:24:41.911Z,79.13
2022-08-08T05:27:15.779Z,79.69
2022-08-08T05:29:42.450Z,80.00
2022-08-08T05:32:10.008Z,80.14
2022-08-08T05:34:49.237Z,80.54
2022-08-08T05:37:23.291Z,80.16
2022-08-08T05:40:07.311Z,79.85
2022-08-08T05:42:45.176Z,80.05
2022-08-08T05:45:25.500Z,80.31
2022-08-08T05:48:09.058Z,79.67
2022-08-08T05:50:38.757Z,79.76
2022-08-08T05:53:53.612Z,79.40
2022-08-08T05:56:11.656Z,78.75
2022-08-08T05:58:53.873Z,79.08
2022-08-08T06:01:56.777Z,78.65
2022-08-08T06:04:23.804Z,78.76
2022-08-08T06:06:54.036Z,78.54
2022-08-08T06:09:58.230Z,77.86
2022-08-08T06:12:18.478Z,76.78
2022-08-08T06:14:47.803Z,75.12
2022-08-08T06:17:21.107Z,75.80
2022-08-08T06:20:11.614Z,75.40
2022-08-08T06:22:42.251Z,76.33
2022-08-08T06:25:15.413Z,75.37
2022-08-08T06:27:50.590Z,74.91
2022-08-08T06:30:28.375Z,74.85
2022-08-08T06:33:01.380Z,73.37
2022-08-08T06:36:08.417Z,73.06
2022-08-08T06:38:29.027Z,73.03
2022-08-08T06:41:05.279Z,73.08
2022-08-08T06:43:36.211Z,70.72
2022-08-08T06:46:08.719Z,70.18
2022-08-08T06:48:36.440Z,70.28
2022-08-08T06:51:08.437Z,70.46
2022-08-08T06:53:39.251Z,70.59
2022-08-08T06:56:08.968Z,70.07
2022-08-08T06:58:36.869Z,69.27
2022-08-08T07:02:16.153Z,69.05
2022-08-08T07:04:35.555Z,69.32
2022-08-08T07:06:59.559Z,67.30
2022-08-08T07:09:41.470Z,65.58
2022-08-08T07:12:30.498Z,65.63
2022-08-08T07:15:06.408Z,64.25
2022-08-08T07:18:01.775Z,64.59
2022-08-08T07:20:50.534Z,64.82
2022-08-08T07:23:57.635Z,64.47
2022-08-08T07:26:28.937Z,64.73
2022-08-08T07:29:05.526Z,63.36
2022-08-08T07:31:35.911Z,62.43
2022-08-08T07:34:09.013Z,61.21
2022-08-08T07:37:12.087Z,61.49
2022-08-08T07:39:45.856Z,60.63
2022-08-08T07:42:33.315Z,58.59
2022-08-08T07:45:07.473Z,57.71
2022-08-08T07:47:39.698Z,57.46
2022-08-08T07:50:12.517Z,56.30
2022-08-08T07:52:47.214Z,55.61
2022-08-08T07:55:28.556Z,54.94
2022-08-08T07:58:28.432Z,53.90
2022-08-08T08:01:02.060Z,52.33
2022-08-08T08:03:41.281Z,52.76
2022-08-08T08:06:14.239Z,51.87
2022-08-08T08:09:10.687Z,52.29
2022-08-08T08:11:52.534Z,51.01
2022-08-08T08:14:46.362Z,51.95
2022-08-08T08:17:18.384Z,50.82
2022-08-08T08:19:50.453Z,50.60
2022-08-08T08:22:31.507Z,50.24
2022-08-08T08:25:08.130Z,50.62
2022-08-08T08:27:36.968Z,50.10
2022-08-08T08:30:05.861Z,49.58
2022-08-08T08:32:36.528Z,49.03
2022-08-08T08:35:08.924Z,49.10
2022-08-08T08:37:53.016Z,48.99
2022-08-08T08:40:26.303Z,48.69
2022-08-08T08:42:55.764Z,48.85
2022-08-08T08:45:26.496Z,47.55
2022-08-08T08:48:01.052Z,47.23
2022-08-08T08:50:35.591Z,46.93
2022-08-08T08:53:27.340Z,45.79
2022-08-08T08:56:06.906Z,45.54
2022-08-08T08:58:42.892Z,44.68
2022-08-08T09:01:15.639Z,43.51
2022-08-08T09:03:50.503Z,43.92
2022-08-08T09:06:34.265Z,43.55
2022-08-08T09:09:35.600Z,43.28
2022-08-08T09:12:17.576Z,43.00
2022-08-08T09:14:48.450Z,41.57
2022-08-08T09:17:19.596Z,40.79
2022-08-08T09:21:58.132Z,40.15
2022-08-08T09:22:45.568Z,39.72
2022-08-08T09:25:12.575Z,40.13
2022-08-08T09:27:57.353Z,40.32
2022-08-08T09:30:30.169Z,39.77
2022-08-08T09:33:54.324Z,39.56
2022-08-08T09:35:48.879Z,39.99
2022-08-08T09:38:33.026Z,39.62
2022-08-08T09:41:06.576Z,39.60
2022-08-08T09:44:06.112Z,40.93
2022-08-08T09:46:34.348Z,39.93
2022-08-08T09:49:18.212Z,39.08
2022-08-08T09:52:07.617Z,39.73
2022-08-08T09:54:44.357Z,39.64
2022-08-08T09:57:16.920Z,39.71
2022-08-08T10:00:01.957Z,38.86
2022-08-08T10:02:49.327Z,39.21
2022-08-08T10:05:25.346Z,38.17
2022-08-08T10:07:52.374Z,38.11
2022-08-08T10:10:41.659Z,37.10
2022-08-08T10:13:22.809Z,36.75
2022-08-08T10:15:59.004Z,36.48
2022-08-08T10:18:33.370Z,36.12
2022-08-08T10:21:22.599Z,35.55
2022-08-08T10:23:58.015Z,34.68
2022-08-08T10:26:56.914Z,35.13
2022-08-08T10:29:58.301Z,35.82
2022-08-08T10:32:39.065Z,35.97
2022-08-08T10:36:06.721Z,34.58
2022-08-08T10:38:08.298Z,34.08
2022-08-08T10:40:37.848Z,35.69
2022-08-08T10:43:06.569Z,34.17
2022-08-08T10:45:56.079Z,34.99
2022-08-08T10:48:58.503Z,35.26
2022-08-08T10:51:26.099Z,35.25
2022-08-08T10:53:57.377Z,35.11
2022-08-08T10:56:27.728Z,35.77
2022-08-08T10:59:02.909Z,36.57
2022-08-08T11:01:33.649Z,36.81
2022-08-08T11:04:07.747Z,38.04
2022-08-08T11:06:41.851Z,37.51
2022-08-08T11:09:20.094Z,36.95
2022-08-08T11:12:04.770Z,36.65
2022-08-08T11:14:52.812Z,35.14
2022-08-08T11:17:59.444Z,35.76
2022-08-08T11:20:12.697Z,34.33
2022-08-08T11:22:41.092Z,33.67
2022-08-08T11:25:14.518Z,33.96
2022-08-08T11:27:44.582Z,33.80
2022-08-08T11:30:20.163Z,33.83
2022-08-08T11:32:55.981Z,34.18
2022-08-08T11:35:43.382Z,33.40
2022-08-08T11:38:35.948Z,32.94
2022-08-08T11:41:01.034Z,32.48
2022-08-08T11:43:39.117Z,31.89
2022-08-08T11:46:13.801Z,32.39
2022-08-08T11:48:47.182Z,32.44
2022-08-08T11:51:38.940Z,32.77
2022-08-08T11:54:26.644Z,33.72
2022-08-08T11:56:56.364Z,32.51
2022-08-08T12:00:00.257Z,32.30
2022-08-08T12:02:32.206Z,32.73
2022-08-08T12:05:12.460Z,33.31
2022-08-08T12:07:54.271Z,32.42
2022-08-08T12:10:25.205Z,31.43
2022-08-08T12:13:05.251Z,31.47
2022-08-08T12:15:41.856Z,31.07
2022-08-08T12:18:18.103Z,31.41
2022-08-08T12:20:56.580Z,31.16
2022-08-08T12:23:43.663Z,31.94
2022-08-08T12:26:28.369Z,31.26
2022-08-08T12:29:25.824Z,30.90
2022-08-08T12:32:17.090Z,31.50
2022-08-08T12:35:04.764Z,30.82
2022-08-08T12:38:01.553Z,31.21
2022-08-08T12:40:57.045Z,31.72
2022-08-08T12:43:47.616Z,30.00
2022-08-08T12:46:26.666Z,30.19
2022-08-08T12:49:25.547Z,29.60
2022-08-08T12:51:58.821Z,30.47
2022-08-08T12:54:33.257Z,29.79
2022-08-08T12:57:23.463Z,30.88
2022-08-08T13:00:03.726Z,30.47
2022-08-08T13:02:51.498Z,30.30
2022-08-08T13:05:25.706Z,29.65
2022-08-08T13:08:03.711Z,30.14
2022-08-08T13:10:36.234Z,30.52
2022-08-08T13:13:07.971Z,29.48
2022-08-08T13:15:36.564Z,29.24
2022-08-08T13:18:10.547Z,29.40
2022-08-08T13:20:44.826Z,28.53
2022-08-08T13:23:36.398Z,28.87
2022-08-08T13:26:15.482Z,30.63
2022-08-08T13:28:42.963Z,32.02
2022-08-08T13:31:16.467Z,32.57
2022-08-08T13:33:47.245Z,31.51
2022-08-08T13:36:17.119Z,31.18
2022-08-08T13:38:44.495Z,31.58
2022-08-08T13:41:16.579Z,30.43
2022-08-08T13:43:46.628Z,31.35
2022-08-08T13:46:27.318Z,31.05
2022-08-08T13:49:11.193Z,30.09
2022-08-08T13:51:55.471Z,31.41
2022-08-08T13:54:22.853Z,31.84
2022-08-08T13:57:08.541Z,30.23
2022-08-08T13:59:48.643Z,30.83
2022-08-08T14:02:21.368Z,30.93
2022-08-08T14:05:05.168Z,30.60
2022-08-08T14:07:51.972Z,31.32
2022-08-08T14:10:33.661Z,31.94
2022-08-08T14:13:20.705Z,31.23
2022-08-08T14:16:02.473Z,31.58
2022-08-08T14:18:34.886Z,31.29
2022-08-08T14:21:12.658Z,31.00
2022-08-08T14:24:08.047Z,31.78
2022-08-08T14:26:30.752Z,31.80
2022-08-08T14:29:02.767Z,32.06
2022-08-08T14:32:05.596Z,32.62
2022-08-08T14:34:23.178Z,32.51
2022-08-08T14:36:54.698Z,32.05
2022-08-08T14:39:25.036Z,32.62
2022-08-08T14:42:09.315Z,32.87
2022-08-08T14:44:39.385Z,31.95
2022-08-08T14:47:17.061Z,32.91
2022-08-08T14:50:02.387Z,32.69
2022-08-08T14:53:08.093Z,32.01
2022-08-08T14:55:42.305Z,32.27
2022-08-08T14:58:12.162Z,32.54
2022-08-08T15:00:44.501Z,32.49
2022-08-08T15:03:16.240Z,33.42
2022-08-08T15:05:52.800Z,32.88
2022-08-08T15:08:35.664Z,32.64
2022-08-08T15:11:06.913Z,33.24
2022-08-08T15:13:40.303Z,32.83
2022-08-08T15:16:14.640Z,33.02
2022-08-08T15:18:50.080Z,32.39
2022-08-08T15:21:20.611Z,33.09
2022-08-08T15:23:51.267Z,32.85
2022-08-08T15:26:25.871Z,32.83
2022-08-08T15:28:56.365Z,33.08
2022-08-08T15:31:26.064Z,32.99
2022-08-08T15:34:18.569Z,33.63
2022-08-08T15:36:56.729Z,34.47
2022-08-08T15:39:23.402Z,34.77
2022-08-08T15:41:54.893Z,34.43
2022-08-08T15:44:21.371Z,34.25
2022-08-08T15:46:50.564Z,33.48
2022-08-08T15:49:20.348Z,33.41
2022-08-08T15:51:49.898Z,33.55
2022-08-08T15:54:18.838Z,34.12
2022-08-08T15:57:11.259Z,34.25
2022-08-08T16:00:06.255Z,34.12
2022-08-08T16:02:30.411Z,34.07
2022-08-08T16:05:04.136Z,34.47
2022-08-08T16:07:51.800Z,34.02
2022-08-08T16:13:02.148Z,33.72
2022-08-08T16:13:29.977Z,34.16
2022-08-08T16:15:58.796Z,34.14
2022-08-08T16:18:33.360Z,34.71
2022-08-08T16:21:01.297Z,35.11
2022-08-08T16:23:31.431Z,34.78
2022-08-08T16:26:04.430Z,35.02
2022-08-08T16:28:34.939Z,35.16
2022-08-08T16:31:07.704Z,35.39
2022-08-08T16:33:38.921Z,35.32
2022-08-08T16:36:12.997Z,36.22
2022-08-08T16:38:47.326Z,36.11
2022-08-08T16:41:20.491Z,36.03
2022-08-08T16:43:51.543Z,35.99
2022-08-08T16:46:42.844Z,36.25
2022-08-08T16:49:08.731Z,35.89
2022-08-08T16:55:00.065Z,36.54
2022-08-08T16:55:23.002Z,36.60
2022-08-08T16:57:27.791Z,36.86
2022-08-08T17:00:01.239Z,36.81
2022-08-08T17:02:38.257Z,36.58
2022-08-08T17:05:06.941Z,36.94
2022-08-08T17:07:33.423Z,36.75
2022-08-08T17:10:04.983Z,37.00
2022-08-08T17:12:33.970Z,37.33
2022-08-08T17:15:18.076Z,37.49
2022-08-08T17:18:01.512Z,37.54
2022-08-08T17:20:29.434Z,37.12
2022-08-08T17:22:59.925Z,37.61
2022-08-08T17:25:52.288Z,37.55
2022-08-08T17:28:34.412Z,37.33
2022-08-08T17:31:44.064Z,37.29
2022-08-08T17:34:49.472Z,37.63
2022-08-08T17:37:00.152Z,38.31
2022-08-08T17:40:03.747Z,38.04
2022-08-08T17:42:15.552Z,38.17
2022-08-08T17:44:44.321Z,38.58
2022-08-08T17:47:23.262Z,39.02
2022-08-08T17:49:53.012Z,39.02
2022-08-08T17:52:28.193Z,39.26
2022-08-08T17:54:56.323Z,39.58
2022-08-08T17:57:23.933Z,39.90
2022-08-08T17:59:51.572Z,39.97
2022-08-08T18:02:29.054Z,40.65
2022-08-08T18:04:58.202Z,40.72
2022-08-08T18:08:04.011Z,40.71
2022-08-08T18:10:14.575Z,40.88
2022-08-08T18:12:44.345Z,41.28
2022-08-08T18:15:14.188Z,41.42
2022-08-08T18:18:09.516Z,42.34
2022-08-08T18:20:42.844Z,42.16
2022-08-08T18:23:15.712Z,42.43
2022-08-08T18:25:43.294Z,43.04
2022-08-08T18:28:13.236Z,43.77
2022-08-08T18:30:41.580Z,43.93
2022-08-08T18:33:36.662Z,44.74
2022-08-08T18:36:03.255Z,44.98
2022-08-08T18:38:31.149Z,45.30
2022-08-08T18:40:58.976Z,45.67
2022-08-08T18:43:43.109Z,46.05
2022-08-08T18:46:57.118Z,46.84
2022-08-08T18:48:57.853Z,47.57
2022-08-08T18:51:48.336Z,47.67
2022-08-08T18:54:21.873Z,48.44
2022-08-08T18:56:50.088Z,48.79
2022-08-08T18:59:17.325Z,49.10
2022-08-08T19:02:25.772Z,49.49
2022-08-08T19:04:31.470Z,49.83
2022-08-08T19:07:02.055Z,50.46
2022-08-08T19:09:48.931Z,50.86
2022-08-08T19:12:16.763Z,50.82
2022-08-08T19:14:44.318Z,52.12
2022-08-08T19:17:12.205Z,51.84
2022-08-08T19:20:02.901Z,52.12
2022-08-08T19:22:30.041Z,52.21
2022-08-08T19:25:55.989Z,52.73
2022-08-08T19:27:56.643Z,52.66
2022-08-08T19:30:26.631Z,53.66
2022-08-08T19:32:53.920Z,53.56
2022-08-08T19:35:25.516Z,53.97
2022-08-08T19:38:11.003Z,54.08
2022-08-08T19:40:37.793Z,55.04
2022-08-08T19:43:11.628Z,54.89
2022-08-08T19:45:58.626Z,54.89
2022-08-08T19:48:29.370Z,55.31
2022-08-08T19:50:59.148Z,55.94
2022-08-08T19:53:53.501Z,56.04
2022-08-08T19:56:13.970Z,56.31
2022-08-08T19:58:43.584Z,56.08
2022-08-08T20:01:22.703Z,56.78
2022-08-08T20:04:01.243Z,56.63
2022-08-08T20:06:29.159Z,57.36
2022-08-08T20:08:56.660Z,57.58
2022-08-08T20:11:23.689Z,57.33
2022-08-08T20:14:12.410Z,57.64
2022-08-08T20:16:40.831Z,58.54
2022-08-08T20:19:09.141Z,58.64
2022-08-08T20:21:37.976Z,58.27
2022-08-08T20:24:06.222Z,59.01
2022-08-08T20:26:35.524Z,58.44
2022-08-08T20:29:06.471Z,59.36
2022-08-08T20:32:02.809Z,59.10
2022-08-08T20:34:30.104Z,59.42
2022-08-08T20:37:03.304Z,59.78
2022-08-08T20:39:34.005Z,60.50
2022-08-08T20:42:28.785Z,60.87
2022-08-08T20:44:56.841Z,60.77
2022-08-08T20:47:24.047Z,61.13
2022-08-08T20:49:54.331Z,61.79
2022-08-08T20:52:24.085Z,61.58
2022-08-08T20:54:50.860Z,62.19
2022-08-08T20:57:20.864Z,62.11
2022-08-08T20:59:48.239Z,62.85
2022-08-08T21:02:25.830Z,62.94
2022-08-08T21:05:01.016Z,63.08
2022-08-08T21:07:47.030Z,63.02
2022-08-08T21:10:15.382Z,63.06
2022-08-08T21:12:44.644Z,63.27
2022-08-08T21:15:16.528Z,63.24
2022-08-08T21:18:00.029Z,62.71
2022-08-08T21:20:34.065Z,63.24
2022-08-08T21:23:08.904Z,63.57
2022-08-08T21:25:36.647Z,63.98
2022-08-08T21:28:14.433Z,64.47
2022-08-08T21:30:52.179Z,64.25
2022-08-08T21:33:22.717Z,64.70
2022-08-08T21:36:14.697Z,64.54
2022-08-08T21:38:36.183Z,64.68
2022-08-08T21:41:02.621Z,64.96
2022-08-08T21:43:34.388Z,65.15
2022-08-08T21:48:04.479Z,65.40
2022-08-08T21:48:54.213Z,65.51
2022-08-08T21:52:38.928Z,65.66
2022-08-08T21:54:53.492Z,66.37
2022-08-08T21:57:04.544Z,66.42
2022-08-08T22:00:01.803Z,66.79
2022-08-08T22:02:19.639Z,66.49
2022-08-08T22:04:58.928Z,66.76
2022-08-08T22:07:34.829Z,66.64
2022-08-08T22:10:09.703Z,66.84
2022-08-08T22:12:38.733Z,67.19
2022-08-08T22:15:07.218Z,67.44
2022-08-08T22:17:45.005Z,67.61
2022-08-08T22:20:23.393Z,68.07
2022-08-08T22:22:52.552Z,67.77
2022-08-08T22:25:24.723Z,68.09
2022-08-08T22:28:02.693Z,68.28
2022-08-08T22:30:32.445Z,68.00
2022-08-08T22:33:00.658Z,68.11
2022-08-08T22:35:27.427Z,68.96
2022-08-08T22:38:14.337Z,69.05
2022-08-08T22:40:45.104Z,69.22
2022-08-08T22:43:15.525Z,69.70
2022-08-08T22:45:46.697Z,69.75
2022-08-08T22:48:19.572Z,69.78
2022-08-08T22:50:51.110Z,70.25
2022-08-08T22:54:27.960Z,70.11
2022-08-08T22:56:05.218Z,70.17
2022-08-08T22:58:34.670Z,70.07
2022-08-08T23:02:01.013Z,69.98
2022-08-08T23:03:55.170Z,69.73
2022-08-08T23:06:26.029Z,70.23
2022-08-08T23:08:55.836Z,70.60
2022-08-08T23:11:30.745Z,70.72
2022-08-08T23:14:14.745Z,70.59
2022-08-08T23:16:43.851Z,70.72
2022-08-08T23:19:11.207Z,70.33
2022-08-08T23:21:38.745Z,70.88
2022-08-08T23:24:06.698Z,70.92
2022-08-08T23:26:33.947Z,71.47
2022-08-08T23:29:00.984Z,71.61
2022-08-08T23:31:27.445Z,71.40
2022-08-08T23:34:16.610Z,71.27
2022-08-08T23:36:40.815Z,71.55
2022-08-08T23:39:07.553Z,71.73
2022-08-08T23:41:47.020Z,71.79
2022-08-08T23:44:18.706Z,72.38
2022-08-08T23:49:04.178Z,72.21
2022-08-08T23:49:33.987Z,71.89
2022-08-08T23:52:05.860Z,72.02
2022-08-08T23:54:42.440Z,72.50
2022-08-08T23:57:26.287Z,72.90
